YOS weather

Owen Sound / Billy Bishop Regional Airport
Owen Sound, Ontario, Canada

Public forecast

Using degrees Celsius for public forecast. Weather courtesy of forecast.io.

Closest aviation weather report (METAR) to Owen Sound / Billy Bishop Regional Airport

Closest report is Wiarton Airport, 14.8 nm (27.5 km) NW. Retrieved 2019/11/15 16:00 UTC (50 minutes ago):

CYVV 151600Z 29010G19KT 12SM BKN030 02/M04 A3011 RMK SC7 SLP208

Closest aviation forecast (TAF) to Owen Sound / Billy Bishop Regional Airport

Closest forecast is Wiarton Airport, 14.8 nm (27.5 km) NW. Retrieved 2019/11/15 14:00 UTC (3 hours ago):

TAF CYVV 151338Z 1514/1524 27015G25KT 6SM -SHSN OVC025 TEMPO 1514/1515 3/4SM -SHSN VV008 FM151500 27015G25KT P6SM -SHSN BKN025 TEMPO 1515/1524 21/2SM -SHSN BKN020 PROB40 1515/1524 11/2SM -SN VV012 RMK NXT FCST BY 152000Z